createdAt,value
2019-03-03T00:00:17.727Z,9.30
2019-03-03T00:01:11.870Z,9.30
2019-03-03T00:01:47.413Z,9.30
2019-03-03T00:02:22.971Z,9.30
2019-03-03T00:02:58.526Z,9.30
2019-03-03T00:03:34.064Z,9.30
2019-03-03T00:04:09.599Z,9.30
2019-03-03T00:04:45.268Z,9.30
2019-03-03T00:05:21.770Z,9.30
2019-03-03T00:05:57.317Z,9.30
2019-03-03T00:06:32.870Z,9.20
2019-03-03T00:07:08.706Z,9.20
2019-03-03T00:07:44.574Z,9.20
2019-03-03T00:08:20.111Z,9.20
2019-03-03T00:08:56.051Z,9.20
2019-03-03T00:09:31.579Z,9.20
2019-03-03T00:10:07.407Z,9.20
2019-03-03T00:10:42.958Z,9.20
2019-03-03T00:11:18.529Z,9.20
2019-03-03T00:11:54.419Z,9.20
2019-03-03T00:12:30.332Z,9.20
2019-03-03T00:13:05.866Z,9.20
2019-03-03T00:13:41.732Z,9.20
2019-03-03T00:14:17.678Z,9.20
2019-03-03T00:14:53.222Z,9.20
2019-03-03T00:15:29.143Z,9.20
2019-03-03T00:16:04.698Z,9.20
2019-03-03T00:16:40.524Z,9.20
2019-03-03T00:17:16.106Z,9.20
2019-03-03T00:17:51.639Z,9.20
2019-03-03T00:18:27.175Z,9.10
2019-03-03T00:19:16.833Z,9.20
2019-03-03T00:19:54.022Z,9.20
2019-03-03T00:20:29.564Z,9.20
2019-03-03T00:21:05.162Z,9.20
2019-03-03T00:21:42.302Z,9.20
2019-03-03T00:22:17.927Z,9.20
2019-03-03T00:22:53.468Z,9.20
2019-03-03T00:23:29.011Z,9.20
2019-03-03T00:24:04.554Z,9.20
2019-03-03T00:24:40.089Z,9.20
2019-03-03T00:25:15.693Z,9.20
2019-03-03T00:25:51.263Z,9.20
2019-03-03T00:26:26.899Z,9.20
2019-03-03T00:27:02.460Z,9.20
2019-03-03T00:27:38.017Z,9.20
2019-03-03T00:28:13.553Z,9.20
2019-03-03T00:28:49.097Z,9.20
2019-03-03T00:29:24.691Z,9.20
2019-03-03T00:30:01.448Z,9.20
2019-03-03T00:30:36.982Z,9.20
2019-03-03T00:31:12.510Z,9.20
2019-03-03T00:31:48.326Z,9.20
2019-03-03T00:32:23.869Z,9.20
2019-03-03T00:32:59.662Z,9.20
2019-03-03T00:33:36.203Z,9.20
2019-03-03T00:34:11.730Z,9.20
2019-03-03T00:34:47.599Z,9.30
2019-03-03T00:35:23.440Z,9.20
2019-03-03T00:35:58.975Z,9.30
2019-03-03T00:36:52.577Z,9.30
2019-03-03T00:37:32.213Z,9.30
2019-03-03T00:38:38.932Z,9.30
2019-03-03T00:39:23.004Z,9.30
2019-03-03T00:40:27.015Z,9.30
2019-03-03T00:41:27.887Z,9.30
2019-03-03T00:42:25.486Z,9.30
2019-03-03T00:43:08.363Z,9.30
2019-03-03T00:43:54.442Z,9.30
2019-03-03T00:44:51.343Z,9.30
2019-03-03T00:45:37.475Z,9.30
2019-03-03T00:46:36.211Z,9.30
2019-03-03T00:47:33.546Z,9.40
2019-03-03T00:48:15.674Z,9.30
2019-03-03T00:49:01.991Z,9.40
2019-03-03T00:50:05.422Z,9.30
2019-03-03T00:51:00.067Z,9.30
2019-03-03T00:51:51.388Z,9.30
2019-03-03T00:52:45.977Z,9.30
2019-03-03T00:53:39.335Z,9.30
2019-03-03T00:54:30.014Z,9.30
2019-03-03T00:55:25.348Z,9.30
2019-03-03T00:56:09.742Z,9.30
2019-03-03T00:57:10.568Z,9.30
2019-03-03T00:58:05.322Z,9.30
2019-03-03T00:58:52.580Z,9.40
2019-03-03T00:59:44.192Z,9.30
2019-03-03T01:00:30.351Z,9.40
2019-03-03T01:01:24.974Z,9.30
2019-03-03T01:02:12.202Z,9.30
2019-03-03T01:02:57.246Z,9.30
2019-03-03T01:03:54.711Z,9.30
2019-03-03T01:04:52.818Z,9.30
2019-03-03T01:05:44.216Z,9.30
2019-03-03T01:06:44.182Z,9.30
2019-03-03T01:07:45.049Z,9.30
2019-03-03T01:08:38.562Z,9.30
2019-03-03T01:09:31.395Z,9.40
2019-03-03T01:10:14.970Z,9.40
2019-03-03T01:11:01.334Z,9.40
2019-03-03T01:11:58.094Z,9.40
2019-03-03T01:12:39.189Z,9.40
2019-03-03T01:13:49.130Z,9.40
2019-03-03T01:14:42.666Z,9.40
2019-03-03T01:15:33.025Z,9.40
2019-03-03T01:16:21.368Z,9.40
2019-03-03T01:17:07.339Z,9.40
2019-03-03T01:18:08.883Z,9.40
2019-03-03T01:18:50.152Z,9.40
2019-03-03T01:19:36.534Z,9.40
2019-03-03T01:20:25.602Z,9.40
2019-03-03T01:21:13.198Z,9.40
2019-03-03T01:22:13.890Z,9.40
2019-03-03T01:23:11.838Z,9.40
2019-03-03T01:24:05.279Z,9.40
2019-03-03T01:24:55.391Z,9.40
2019-03-03T01:25:30.920Z,9.50
2019-03-03T01:26:06.502Z,9.40
2019-03-03T01:26:42.138Z,9.50
2019-03-03T01:27:17.809Z,9.50
2019-03-03T01:27:53.466Z,9.40
2019-03-03T01:28:28.986Z,9.50
2019-03-03T01:29:06.325Z,9.40
2019-03-03T01:29:41.971Z,9.50
2019-03-03T01:30:17.770Z,9.50
2019-03-03T01:30:53.306Z,9.50
2019-03-03T01:31:28.854Z,9.50
2019-03-03T01:32:04.408Z,9.50
2019-03-03T01:32:39.967Z,9.50
2019-03-03T01:33:15.535Z,9.50
2019-03-03T01:33:51.079Z,9.50
2019-03-03T01:34:26.641Z,9.50
2019-03-03T01:35:02.178Z,9.50
2019-03-03T01:35:37.732Z,9.50
2019-03-03T01:36:13.666Z,9.50
2019-03-03T01:36:49.212Z,9.60
2019-03-03T01:37:24.752Z,9.60
2019-03-03T01:38:00.783Z,9.50
2019-03-03T01:38:36.339Z,9.50
2019-03-03T01:39:12.786Z,9.60
2019-03-03T01:39:48.321Z,9.60
2019-03-03T01:40:23.862Z,9.50
2019-03-03T01:40:59.575Z,9.60
2019-03-03T01:41:36.107Z,9.50
2019-03-03T01:42:11.782Z,9.60
2019-03-03T01:42:47.331Z,9.60
2019-03-03T01:43:22.846Z,9.50
2019-03-03T01:43:58.420Z,9.60
2019-03-03T01:44:34.103Z,9.60
2019-03-03T01:45:10.900Z,9.50
2019-03-03T01:45:46.791Z,9.50
2019-03-03T01:46:22.329Z,9.60
2019-03-03T01:46:58.151Z,9.50
2019-03-03T01:47:34.054Z,9.50
2019-03-03T01:48:09.575Z,9.60
2019-03-03T01:48:45.362Z,9.60
2019-03-03T01:49:20.935Z,9.60
2019-03-03T01:49:56.471Z,9.60
2019-03-03T01:50:32.000Z,9.50
2019-03-03T01:51:07.614Z,9.50
2019-03-03T01:51:43.467Z,9.60
2019-03-03T01:52:19.607Z,9.60
2019-03-03T01:52:56.467Z,9.50
2019-03-03T01:53:32.062Z,9.60
2019-03-03T01:54:07.639Z,9.60
2019-03-03T01:54:43.166Z,9.60
2019-03-03T01:55:18.710Z,9.60
2019-03-03T01:55:54.650Z,9.60
2019-03-03T01:56:30.196Z,9.60
2019-03-03T01:57:05.735Z,9.60
2019-03-03T01:57:41.335Z,9.60
2019-03-03T01:58:16.882Z,9.60
2019-03-03T01:58:52.415Z,9.60
2019-03-03T01:59:28.338Z,9.60
2019-03-03T02:00:04.313Z,9.60
2019-03-03T02:00:40.503Z,9.60
2019-03-03T02:01:16.047Z,9.60
2019-03-03T02:01:51.907Z,9.60
2019-03-03T02:02:28.422Z,9.60
2019-03-03T02:03:03.951Z,9.60
2019-03-03T02:03:39.955Z,9.60
2019-03-03T02:04:15.495Z,9.60
2019-03-03T02:04:51.315Z,9.60
2019-03-03T02:05:27.368Z,9.60
2019-03-03T02:06:05.018Z,9.60
2019-03-03T02:06:40.559Z,9.60
2019-03-03T02:07:16.083Z,9.60
2019-03-03T02:07:51.838Z,9.60
2019-03-03T02:08:27.375Z,9.60
2019-03-03T02:09:03.220Z,9.60
2019-03-03T02:09:40.351Z,9.60
2019-03-03T02:10:16.234Z,9.60
2019-03-03T02:10:52.106Z,9.60
2019-03-03T02:11:28.003Z,9.60
2019-03-03T02:12:03.553Z,9.60
2019-03-03T02:12:39.101Z,9.60
2019-03-03T02:13:15.713Z,9.60
2019-03-03T02:13:51.580Z,9.60
2019-03-03T02:14:27.154Z,9.60
2019-03-03T02:15:02.972Z,9.60
2019-03-03T02:15:39.022Z,9.60
2019-03-03T02:16:14.575Z,9.60
2019-03-03T02:16:50.107Z,9.60
2019-03-03T02:17:25.638Z,9.60
2019-03-03T02:18:01.171Z,9.60
2019-03-03T02:18:37.610Z,9.60
2019-03-03T02:19:13.394Z,9.70
2019-03-03T02:19:49.021Z,9.70
2019-03-03T02:20:24.571Z,9.70
2019-03-03T02:21:00.111Z,9.70
2019-03-03T02:21:35.649Z,9.70
2019-03-03T02:22:11.187Z,9.70
2019-03-03T02:22:46.785Z,9.70
2019-03-03T02:23:22.302Z,9.70
2019-03-03T02:23:57.834Z,9.70
2019-03-03T02:24:33.375Z,9.70
2019-03-03T02:25:08.953Z,9.70
2019-03-03T02:25:44.490Z,9.70
2019-03-03T02:26:20.014Z,9.70
2019-03-03T02:26:55.598Z,9.70
2019-03-03T02:27:32.091Z,9.70
2019-03-03T02:28:07.623Z,9.70
2019-03-03T02:28:43.170Z,9.70
2019-03-03T02:29:18.720Z,9.70
2019-03-03T02:29:54.278Z,9.70
2019-03-03T02:30:29.823Z,9.70
2019-03-03T02:31:05.630Z,9.70
2019-03-03T02:31:41.227Z,9.70
2019-03-03T02:32:17.102Z,9.70
2019-03-03T02:32:52.641Z,9.70
2019-03-03T02:33:28.474Z,9.60
2019-03-03T02:34:04.012Z,9.70
2019-03-03T02:34:39.851Z,9.60
2019-03-03T02:35:16.075Z,9.60
2019-03-03T02:35:52.586Z,9.60
2019-03-03T02:36:28.107Z,9.60
2019-03-03T02:37:03.966Z,9.60
2019-03-03T02:37:39.483Z,9.60
2019-03-03T02:38:15.616Z,9.60
2019-03-03T02:38:51.211Z,9.60
2019-03-03T02:39:26.783Z,9.70
2019-03-03T02:40:02.728Z,9.60
2019-03-03T02:40:38.260Z,9.60
2019-03-03T02:41:14.199Z,9.60
2019-03-03T02:41:50.080Z,9.60
2019-03-03T02:42:25.884Z,9.60
2019-03-03T02:43:01.440Z,9.60
2019-03-03T02:43:41.127Z,9.70
2019-03-03T02:44:16.736Z,9.60
2019-03-03T02:44:52.526Z,9.60
2019-03-03T02:45:29.111Z,9.60
2019-03-03T02:46:04.736Z,9.60
2019-03-03T02:46:40.394Z,9.60
2019-03-03T02:47:15.924Z,9.60
2019-03-03T02:47:51.480Z,9.60
2019-03-03T02:48:27.051Z,9.60
2019-03-03T02:49:02.688Z,9.60
2019-03-03T02:49:38.264Z,9.60
2019-03-03T02:50:13.886Z,9.60
2019-03-03T02:50:49.429Z,9.60
2019-03-03T02:51:25.555Z,9.60
2019-03-03T02:52:01.100Z,9.60
2019-03-03T02:52:36.639Z,9.60
2019-03-03T02:53:12.174Z,9.60
2019-03-03T02:53:47.711Z,9.60
2019-03-03T02:54:23.260Z,9.60
2019-03-03T02:54:58.773Z,9.50
2019-03-03T02:55:34.605Z,9.60
2019-03-03T02:56:10.129Z,9.60
2019-03-03T02:56:45.695Z,9.60
2019-03-03T02:57:21.251Z,9.60
2019-03-03T02:57:56.787Z,9.60
2019-03-03T02:58:32.325Z,9.60
2019-03-03T02:59:08.191Z,9.50
2019-03-03T02:59:43.850Z,9.60
2019-03-03T03:00:20.450Z,9.60
2019-03-03T03:01:17.751Z,9.50
2019-03-03T03:01:56.784Z,9.50
2019-03-03T03:02:48.750Z,9.50
2019-03-03T03:03:25.453Z,9.50
2019-03-03T03:04:00.988Z,9.50
2019-03-03T03:04:36.551Z,9.50
2019-03-03T03:05:12.118Z,9.60
2019-03-03T03:06:12.995Z,9.60
2019-03-03T03:06:58.302Z,9.50
2019-03-03T03:07:42.414Z,9.60
2019-03-03T03:08:22.251Z,9.50
2019-03-03T03:09:26.231Z,9.50
2019-03-03T03:10:23.808Z,9.50
2019-03-03T03:11:09.526Z,9.50
2019-03-03T03:12:06.100Z,9.50
2019-03-03T03:12:53.616Z,9.50
2019-03-03T03:13:47.279Z,9.50
2019-03-03T03:14:32.631Z,9.50
2019-03-03T03:15:26.419Z,9.50
2019-03-03T03:16:39.522Z,9.50
2019-03-03T03:17:28.487Z,9.50
2019-03-03T03:18:29.371Z,9.50
2019-03-03T03:19:17.104Z,9.50
2019-03-03T03:20:10.463Z,9.50
2019-03-03T03:20:56.439Z,9.50
2019-03-03T03:21:45.282Z,9.50
2019-03-03T03:22:39.928Z,9.50
2019-03-03T03:23:50.079Z,9.40
2019-03-03T03:24:54.138Z,9.50
2019-03-03T03:25:42.863Z,9.50
2019-03-03T03:26:46.838Z,9.50
2019-03-03T03:27:40.415Z,9.50
2019-03-03T03:28:24.543Z,9.50
2019-03-03T03:29:11.031Z,9.40
2019-03-03T03:30:00.900Z,9.40
2019-03-03T03:30:49.680Z,9.50
2019-03-03T03:31:50.420Z,9.40
2019-03-03T03:32:36.851Z,9.40
2019-03-03T03:33:41.376Z,9.40
2019-03-03T03:34:21.880Z,9.40
2019-03-03T03:35:15.263Z,9.40
2019-03-03T03:36:10.572Z,9.40
2019-03-03T03:36:52.469Z,9.40
2019-03-03T03:37:56.320Z,9.40
2019-03-03T03:38:54.002Z,9.40
2019-03-03T03:39:47.221Z,9.40
2019-03-03T03:40:54.037Z,9.40
2019-03-03T03:41:51.507Z,9.40
2019-03-03T03:42:35.802Z,9.40
2019-03-03T03:43:30.587Z,9.40
2019-03-03T03:44:34.263Z,9.50
2019-03-03T03:45:37.293Z,9.40
2019-03-03T03:46:30.528Z,9.40
2019-03-03T03:47:12.895Z,9.40
2019-03-03T03:47:58.062Z,9.40
2019-03-03T03:49:02.333Z,9.50
2019-03-03T03:49:56.960Z,9.50
2019-03-03T03:50:54.721Z,9.40
2019-03-03T03:51:49.346Z,9.50
2019-03-03T03:52:43.982Z,9.50
2019-03-03T03:53:25.901Z,9.40
2019-03-03T03:54:11.742Z,9.40
2019-03-03T03:54:54.332Z,9.40
2019-03-03T03:55:41.940Z,9.40
2019-03-03T03:56:36.571Z,9.40
2019-03-03T03:57:22.599Z,9.40
2019-03-03T03:58:16.324Z,9.50
2019-03-03T03:59:25.966Z,9.40
2019-03-03T04:00:17.730Z,9.50
2019-03-03T04:01:01.019Z,9.40
2019-03-03T04:01:55.650Z,9.40
2019-03-03T04:02:56.404Z,9.50
2019-03-03T04:03:49.738Z,9.50
2019-03-03T04:04:38.189Z,9.40
2019-03-03T04:05:22.904Z,9.50
2019-03-03T04:06:17.545Z,9.40
2019-03-03T04:07:04.743Z,9.50
2019-03-03T04:07:49.802Z,9.50
2019-03-03T04:08:35.805Z,9.40
2019-03-03T04:09:36.191Z,9.40
2019-03-03T04:10:20.439Z,9.40
2019-03-03T04:11:04.686Z,9.40
2019-03-03T04:11:59.328Z,9.40
2019-03-03T04:13:06.215Z,9.40
2019-03-03T04:14:01.848Z,9.40
2019-03-03T04:14:44.116Z,9.40
2019-03-03T04:15:39.416Z,9.40
2019-03-03T04:16:43.152Z,9.40
2019-03-03T04:17:34.819Z,9.40
2019-03-03T04:18:23.973Z,9.40
2019-03-03T04:19:30.707Z,9.40
2019-03-03T04:20:24.724Z,9.40
2019-03-03T04:21:06.762Z,9.30
2019-03-03T04:21:49.290Z,9.30
2019-03-03T04:22:40.592Z,9.30
2019-03-03T04:23:47.190Z,9.30
2019-03-03T04:24:41.622Z,9.30
2019-03-03T04:25:35.540Z,9.30
2019-03-03T04:26:42.479Z,9.30
2019-03-03T04:27:34.063Z,9.30
2019-03-03T04:28:32.175Z,9.30
2019-03-03T04:29:25.517Z,9.20
2019-03-03T04:30:26.321Z,9.20
2019-03-03T04:31:10.777Z,9.20
2019-03-03T04:31:59.213Z,9.20
2019-03-03T04:32:48.031Z,9.20
2019-03-03T04:33:28.965Z,9.20
2019-03-03T04:34:29.975Z,9.20
2019-03-03T04:35:13.542Z,9.20
2019-03-03T04:36:08.349Z,9.20
2019-03-03T04:37:05.068Z,9.20
2019-03-03T04:38:02.497Z,9.20
2019-03-03T04:38:56.677Z,9.20
2019-03-03T04:39:44.710Z,9.20
2019-03-03T04:40:45.571Z,9.20
2019-03-03T04:41:34.408Z,9.20
2019-03-03T04:42:23.027Z,9.20
2019-03-03T04:43:16.272Z,9.20
2019-03-03T04:44:17.016Z,9.20
2019-03-03T04:45:10.601Z,9.20
2019-03-03T04:45:57.238Z,9.20
2019-03-03T04:46:40.939Z,9.20
2019-03-03T04:47:24.279Z,9.10
2019-03-03T04:48:18.864Z,9.10
2019-03-03T04:49:00.127Z,9.10
2019-03-03T04:49:50.323Z,9.10
2019-03-03T04:50:41.139Z,9.10
2019-03-03T04:51:35.374Z,9.10
2019-03-03T04:52:30.323Z,9.10
2019-03-03T04:53:29.031Z,9.10
2019-03-03T04:54:25.456Z,9.10
2019-03-03T04:55:11.810Z,9.10
2019-03-03T04:55:57.307Z,9.10
2019-03-03T04:57:10.781Z,9.00
2019-03-03T04:58:08.115Z,9.00
2019-03-03T04:59:02.763Z,9.00
2019-03-03T04:59:55.286Z,9.00
2019-03-03T05:00:48.886Z,9.00
2019-03-03T05:01:32.834Z,8.90
2019-03-03T05:02:18.252Z,8.90
2019-03-03T05:03:12.491Z,8.90
2019-03-03T05:04:02.535Z,8.90
2019-03-03T05:04:46.615Z,8.80
2019-03-03T05:05:28.195Z,8.80
2019-03-03T05:06:17.240Z,8.80
2019-03-03T05:07:10.199Z,8.80
2019-03-03T05:07:52.381Z,8.80
2019-03-03T05:08:36.415Z,8.70
2019-03-03T05:09:24.754Z,8.70
2019-03-03T05:10:12.466Z,8.70
2019-03-03T05:11:08.574Z,8.70
2019-03-03T05:12:38.712Z,8.70
2019-03-03T05:13:30.294Z,8.70
2019-03-03T05:14:16.687Z,8.70
2019-03-03T05:14:53.719Z,8.70
2019-03-03T05:15:47.785Z,8.70
2019-03-03T05:16:40.054Z,8.70
2019-03-03T05:17:21.870Z,8.70
2019-03-03T05:18:02.967Z,8.70
2019-03-03T05:18:42.942Z,8.70
2019-03-03T05:19:40.626Z,8.70
2019-03-03T05:20:16.179Z,8.70
2019-03-03T05:20:52.483Z,8.70
2019-03-03T05:21:28.342Z,8.70
2019-03-03T05:22:03.918Z,8.70
2019-03-03T05:22:39.458Z,8.70
2019-03-03T05:23:15.014Z,8.70
2019-03-03T05:23:50.550Z,8.70
2019-03-03T05:24:33.944Z,8.70
2019-03-03T05:25:04.338Z,8.70
2019-03-03T05:25:39.884Z,8.70
2019-03-03T05:26:15.504Z,8.70
2019-03-03T05:26:51.047Z,8.70
2019-03-03T05:27:27.243Z,8.70
2019-03-03T05:28:02.797Z,8.70
2019-03-03T05:28:38.604Z,8.70
2019-03-03T05:29:14.163Z,8.70
2019-03-03T05:29:50.890Z,8.70
2019-03-03T05:30:26.756Z,8.70
2019-03-03T05:31:02.290Z,8.70
2019-03-03T05:31:38.143Z,8.70
2019-03-03T05:32:13.702Z,8.70
2019-03-03T05:32:49.256Z,8.70
2019-03-03T05:33:25.868Z,8.70
2019-03-03T05:34:01.416Z,8.70
2019-03-03T05:34:37.270Z,8.70
2019-03-03T05:35:12.806Z,8.70
2019-03-03T05:35:48.603Z,8.70
2019-03-03T05:36:24.146Z,8.70
2019-03-03T05:36:59.963Z,8.70
2019-03-03T05:37:35.525Z,8.70
2019-03-03T05:38:11.319Z,8.70
2019-03-03T05:38:46.885Z,8.70
2019-03-03T05:39:23.482Z,8.70
2019-03-03T05:39:59.027Z,8.70
2019-03-03T05:40:34.571Z,8.70
2019-03-03T05:41:10.126Z,8.60
2019-03-03T05:41:45.687Z,8.60
2019-03-03T05:42:21.646Z,8.60
2019-03-03T05:42:57.191Z,8.60
2019-03-03T05:43:32.734Z,8.60
2019-03-03T05:44:08.289Z,8.60
2019-03-03T05:44:43.991Z,8.60
2019-03-03T05:45:19.540Z,8.50
2019-03-03T05:45:55.599Z,8.50
2019-03-03T05:46:31.163Z,8.50
2019-03-03T05:47:06.946Z,8.50
2019-03-03T05:47:42.830Z,8.50
2019-03-03T05:48:18.379Z,8.50
2019-03-03T05:48:53.935Z,8.50
2019-03-03T05:49:29.767Z,8.50
2019-03-03T05:50:05.333Z,8.50
2019-03-03T05:50:40.899Z,8.50
2019-03-03T05:51:16.445Z,8.50
2019-03-03T05:51:52.070Z,8.50
2019-03-03T05:52:27.632Z,8.50
2019-03-03T05:53:03.191Z,8.50
2019-03-03T05:53:39.029Z,8.50
2019-03-03T05:54:14.574Z,8.50
2019-03-03T05:54:50.455Z,8.50
2019-03-03T05:55:26.015Z,8.50
2019-03-03T05:56:01.808Z,8.50
2019-03-03T05:56:37.356Z,8.50
2019-03-03T05:57:12.940Z,8.50
2019-03-03T05:57:48.591Z,8.50
2019-03-03T05:58:24.131Z,8.50
2019-03-03T05:58:59.929Z,8.50
2019-03-03T05:59:35.472Z,8.50
2019-03-03T06:00:12.103Z,8.50
2019-03-03T06:00:47.703Z,8.50
2019-03-03T06:01:23.343Z,8.60
2019-03-03T06:01:59.144Z,8.50
2019-03-03T06:02:34.717Z,8.60
2019-03-03T06:03:10.270Z,8.60
2019-03-03T06:03:45.816Z,8.60
2019-03-03T06:04:21.351Z,8.60
2019-03-03T06:04:56.898Z,8.60
2019-03-03T06:05:32.438Z,8.60
2019-03-03T06:06:08.074Z,8.60
2019-03-03T06:06:43.935Z,8.60
2019-03-03T06:07:19.479Z,8.50
2019-03-03T06:07:55.218Z,8.60
2019-03-03T06:08:30.763Z,8.60
2019-03-03T06:09:06.729Z,8.60
2019-03-03T06:09:42.711Z,8.60
2019-03-03T06:10:18.257Z,8.60
2019-03-03T06:10:54.194Z,8.60
2019-03-03T06:11:29.744Z,8.60
2019-03-03T06:12:05.562Z,8.60
2019-03-03T06:12:41.133Z,8.60
2019-03-03T06:13:16.750Z,8.60
2019-03-03T06:13:52.305Z,8.60
2019-03-03T06:14:28.210Z,8.60
2019-03-03T06:15:03.835Z,8.60
2019-03-03T06:15:39.373Z,8.60
2019-03-03T06:16:14.906Z,8.60
2019-03-03T06:16:50.469Z,8.60
2019-03-03T06:17:26.276Z,8.70
2019-03-03T06:18:01.828Z,8.60
2019-03-03T06:18:37.370Z,8.70
2019-03-03T06:19:13.178Z,8.70
2019-03-03T06:19:48.735Z,8.70
2019-03-03T06:20:24.279Z,8.70
2019-03-03T06:20:59.849Z,8.70
2019-03-03T06:21:36.770Z,8.70
2019-03-03T06:22:12.322Z,8.70
2019-03-03T06:22:47.891Z,8.70
2019-03-03T06:23:24.038Z,8.70
2019-03-03T06:23:59.588Z,8.70
2019-03-03T06:24:35.150Z,8.70
2019-03-03T06:25:10.719Z,8.70
2019-03-03T06:25:46.263Z,8.70
2019-03-03T06:26:22.359Z,8.70
2019-03-03T06:26:57.904Z,8.70
2019-03-03T06:27:34.708Z,8.70
2019-03-03T06:28:10.270Z,8.70
2019-03-03T06:28:46.129Z,8.70
2019-03-03T06:29:21.675Z,8.70
2019-03-03T06:29:57.478Z,8.70
2019-03-03T06:30:33.011Z,8.70
2019-03-03T06:31:08.719Z,8.70
2019-03-03T06:31:44.290Z,8.70
2019-03-03T06:32:19.846Z,8.70
2019-03-03T06:32:55.403Z,8.70
2019-03-03T06:33:30.955Z,8.70
2019-03-03T06:34:06.523Z,8.70
2019-03-03T06:34:42.074Z,8.70
2019-03-03T06:35:17.615Z,8.70
2019-03-03T06:35:53.446Z,8.70
2019-03-03T06:36:28.994Z,8.70
2019-03-03T06:37:04.530Z,8.70
2019-03-03T06:37:40.459Z,8.70
2019-03-03T06:38:16.003Z,8.70
2019-03-03T06:38:51.632Z,8.70
2019-03-03T06:39:27.450Z,8.70
2019-03-03T06:40:03.028Z,8.70
2019-03-03T06:40:38.568Z,8.70
2019-03-03T06:41:14.899Z,8.80
2019-03-03T06:41:50.435Z,8.70
2019-03-03T06:42:26.011Z,8.70
2019-03-03T06:43:01.623Z,8.70
2019-03-03T06:43:37.184Z,8.70
2019-03-03T06:44:13.041Z,8.70
2019-03-03T06:44:48.611Z,8.70
2019-03-03T06:45:24.158Z,8.70
2019-03-03T06:45:59.706Z,8.70
2019-03-03T06:46:35.245Z,8.70
2019-03-03T06:47:10.846Z,8.70
2019-03-03T06:47:46.398Z,8.70
2019-03-03T06:48:22.032Z,8.70
2019-03-03T06:48:57.930Z,8.70
2019-03-03T06:49:33.487Z,8.70
2019-03-03T06:50:10.642Z,8.70
2019-03-03T06:50:46.310Z,8.70
2019-03-03T06:51:21.889Z,8.70
2019-03-03T06:51:57.447Z,8.70
2019-03-03T06:52:32.999Z,8.70
2019-03-03T06:53:08.538Z,8.70
2019-03-03T06:53:44.167Z,8.70
2019-03-03T06:54:19.963Z,8.70
2019-03-03T06:54:55.843Z,8.70
2019-03-03T06:55:31.667Z,8.70
2019-03-03T06:56:07.218Z,8.70
2019-03-03T06:56:43.048Z,8.70
2019-03-03T06:57:18.578Z,8.70
2019-03-03T06:57:54.674Z,8.70
2019-03-03T06:58:30.316Z,8.70
2019-03-03T06:59:05.894Z,8.70
2019-03-03T06:59:41.452Z,8.70
2019-03-03T07:00:17.518Z,8.70
2019-03-03T07:00:53.423Z,8.70
2019-03-03T07:01:29.007Z,8.70
2019-03-03T07:02:04.574Z,8.70
2019-03-03T07:02:40.360Z,8.70
2019-03-03T07:03:16.247Z,8.70
2019-03-03T07:03:51.790Z,8.80
2019-03-03T07:04:27.585Z,8.70
2019-03-03T07:05:03.118Z,8.70
2019-03-03T07:05:38.674Z,8.80
2019-03-03T07:06:14.756Z,8.80
2019-03-03T07:06:50.298Z,8.80
2019-03-03T07:07:26.827Z,8.70
2019-03-03T07:08:02.381Z,8.80
2019-03-03T07:08:38.223Z,8.70
2019-03-03T07:09:14.062Z,8.80
2019-03-03T07:09:49.617Z,8.80
2019-03-03T07:10:25.530Z,8.80
2019-03-03T07:11:01.098Z,8.80
2019-03-03T07:11:37.002Z,8.80
2019-03-03T07:12:12.842Z,8.80
2019-03-03T07:12:48.436Z,8.80
2019-03-03T07:13:23.982Z,8.80
2019-03-03T07:13:59.548Z,8.80
2019-03-03T07:14:35.400Z,8.80
2019-03-03T07:15:13.029Z,8.80
2019-03-03T07:15:48.599Z,8.80
2019-03-03T07:16:26.332Z,8.80
2019-03-03T07:17:01.647Z,8.80
2019-03-03T07:17:37.201Z,8.80
2019-03-03T07:18:12.753Z,8.80
2019-03-03T07:18:48.304Z,8.80
2019-03-03T07:19:23.848Z,8.90
2019-03-03T07:19:59.394Z,8.90
2019-03-03T07:20:34.964Z,8.90
2019-03-03T07:21:10.506Z,8.90
2019-03-03T07:21:46.043Z,8.90
2019-03-03T07:22:21.596Z,8.90
2019-03-03T07:22:57.144Z,8.90
2019-03-03T07:23:32.978Z,8.90
2019-03-03T07:24:08.542Z,8.90
2019-03-03T07:24:44.194Z,8.90
2019-03-03T07:25:19.826Z,8.90
2019-03-03T07:25:55.385Z,8.90
2019-03-03T07:26:30.930Z,8.90
2019-03-03T07:27:06.833Z,8.90
2019-03-03T07:27:42.698Z,8.90
2019-03-03T07:28:18.243Z,8.90
2019-03-03T07:28:53.808Z,8.90
2019-03-03T07:29:29.341Z,8.90
2019-03-03T07:30:06.627Z,9.00
2019-03-03T07:30:42.156Z,8.90
2019-03-03T07:31:17.691Z,9.00
2019-03-03T07:31:53.265Z,9.00
2019-03-03T07:32:29.083Z,9.00
2019-03-03T07:33:27.318Z,9.00
2019-03-03T07:34:03.655Z,9.00
2019-03-03T07:34:39.211Z,9.00
2019-03-03T07:35:14.755Z,9.00
2019-03-03T07:35:50.328Z,9.10
2019-03-03T07:36:26.247Z,9.10
2019-03-03T07:37:02.058Z,9.00
2019-03-03T07:37:37.630Z,9.10
2019-03-03T07:38:13.445Z,9.10
2019-03-03T07:38:49.303Z,9.10
2019-03-03T07:39:24.947Z,9.10
2019-03-03T07:40:00.509Z,9.10
2019-03-03T07:40:36.055Z,9.10
2019-03-03T07:41:11.598Z,9.10
2019-03-03T07:41:47.606Z,9.10
2019-03-03T07:42:23.155Z,9.10
2019-03-03T07:42:58.698Z,9.20
2019-03-03T07:43:34.250Z,9.20
2019-03-03T07:44:10.046Z,9.20
2019-03-03T07:44:45.596Z,9.20
2019-03-03T07:45:21.414Z,9.20
2019-03-03T07:45:57.039Z,9.20
2019-03-03T07:46:32.570Z,9.20
2019-03-03T07:47:08.390Z,9.20
2019-03-03T07:47:43.930Z,9.20
2019-03-03T07:48:19.485Z,9.20
2019-03-03T07:48:55.030Z,9.20
2019-03-03T07:49:30.831Z,9.20
2019-03-03T07:50:06.446Z,9.20
2019-03-03T07:50:42.082Z,9.20
2019-03-03T07:51:17.929Z,9.30
2019-03-03T07:51:53.485Z,9.30
2019-03-03T07:52:29.138Z,9.30
2019-03-03T07:53:05.058Z,9.30
2019-03-03T07:53:40.842Z,9.30
2019-03-03T07:54:16.743Z,9.30
2019-03-03T07:54:54.399Z,9.30
2019-03-03T07:55:29.945Z,9.30
2019-03-03T07:56:06.580Z,9.40
2019-03-03T07:56:43.203Z,9.30
2019-03-03T07:57:19.877Z,9.30
2019-03-03T07:57:56.238Z,9.30
2019-03-03T07:58:34.216Z,9.40
2019-03-03T07:59:11.065Z,9.40
2019-03-03T07:59:50.646Z,9.40
2019-03-03T08:00:27.508Z,9.40
2019-03-03T08:01:04.264Z,9.40
2019-03-03T08:01:41.026Z,9.40
2019-03-03T08:02:17.599Z,9.40
2019-03-03T08:02:57.126Z,9.40
2019-03-03T08:03:34.094Z,9.40
2019-03-03T08:04:10.481Z,9.40
2019-03-03T08:04:47.221Z,9.40
2019-03-03T08:05:26.409Z,9.40
2019-03-03T08:06:02.978Z,9.50
2019-03-03T08:06:42.113Z,9.40
2019-03-03T08:07:29.867Z,9.40
2019-03-03T08:08:06.282Z,9.40
2019-03-03T08:08:42.941Z,9.40
2019-03-03T08:09:19.949Z,9.50
2019-03-03T08:09:58.480Z,9.50
2019-03-03T08:10:35.127Z,9.50
2019-03-03T08:11:11.634Z,9.50
2019-03-03T08:11:50.018Z,9.50
2019-03-03T08:12:27.021Z,9.50
2019-03-03T08:13:09.304Z,9.50
2019-03-03T08:13:42.828Z,9.50
2019-03-03T08:14:22.355Z,9.50
2019-03-03T08:14:58.801Z,9.50
2019-03-03T08:15:35.574Z,9.50
2019-03-03T08:16:15.155Z,9.50
2019-03-03T08:16:54.801Z,9.50
2019-03-03T08:17:31.864Z,9.50
2019-03-03T08:18:09.481Z,9.60
2019-03-03T08:18:46.874Z,9.60
2019-03-03T08:19:23.642Z,9.60
2019-03-03T08:20:00.461Z,9.60
2019-03-03T08:20:38.668Z,9.60
2019-03-03T08:21:16.267Z,9.60
2019-03-03T08:21:53.562Z,9.60
2019-03-03T08:22:30.178Z,9.60
2019-03-03T08:23:06.768Z,9.60
2019-03-03T08:23:44.580Z,9.60
2019-03-03T08:24:21.519Z,9.60
2019-03-03T08:25:01.880Z,9.60
2019-03-03T08:25:39.912Z,9.60
2019-03-03T08:26:16.980Z,9.60
2019-03-03T08:26:53.710Z,9.60
2019-03-03T08:27:33.500Z,9.60
2019-03-03T08:28:10.253Z,9.60
2019-03-03T08:28:48.732Z,9.60
2019-03-03T08:29:25.700Z,9.60
2019-03-03T08:30:02.252Z,9.60
2019-03-03T08:30:45.381Z,9.70
2019-03-03T08:31:21.848Z,9.60
2019-03-03T08:31:58.622Z,9.70
2019-03-03T08:32:35.237Z,9.70
2019-03-03T08:33:11.833Z,9.70
2019-03-03T08:33:48.535Z,9.60
2019-03-03T08:34:25.175Z,9.60
2019-03-03T08:35:01.519Z,9.60
2019-03-03T08:35:38.137Z,9.60
2019-03-03T08:36:14.938Z,9.70
2019-03-03T08:36:51.764Z,9.60
2019-03-03T08:37:28.326Z,9.60
2019-03-03T08:38:05.578Z,9.60
2019-03-03T08:38:42.568Z,9.60
2019-03-03T08:39:21.857Z,9.60
2019-03-03T08:39:58.182Z,9.60
2019-03-03T08:40:33.864Z,9.60
2019-03-03T08:41:09.434Z,9.60
2019-03-03T08:41:48.694Z,9.60
2019-03-03T08:42:45.143Z,9.60
2019-03-03T08:43:39.779Z,9.60
2019-03-03T08:44:18.687Z,9.60
2019-03-03T08:45:10.846Z,9.60
2019-03-03T08:46:05.472Z,9.60
2019-03-03T08:47:01.073Z,9.60
2019-03-03T08:47:40.642Z,9.60
2019-03-03T08:48:34.082Z,9.60
2019-03-03T08:49:23.847Z,9.60
2019-03-03T08:50:09.027Z,9.60
2019-03-03T08:50:50.768Z,9.60
2019-03-03T08:51:35.151Z,9.60
2019-03-03T08:52:35.019Z,9.60
2019-03-03T08:53:32.735Z,9.60
2019-03-03T08:54:30.445Z,9.60
2019-03-03T08:55:25.151Z,9.60
2019-03-03T08:56:15.875Z,9.60
2019-03-03T08:57:22.654Z,9.60
2019-03-03T08:58:07.174Z,9.60
2019-03-03T08:58:58.682Z,9.60
2019-03-03T09:00:13.867Z,9.60
2019-03-03T09:01:10.278Z,9.60
2019-03-03T09:02:13.830Z,9.70
2019-03-03T09:03:06.858Z,9.70
2019-03-03T09:03:53.868Z,9.70
2019-03-03T09:05:04.731Z,9.70
2019-03-03T09:06:15.583Z,9.70